Time;durP1;ratioP1;P1;durP2;ratioP2;P2;SDS_P1;SDS_P2;PMS_P1;PMS_P2;Temp;Humidity;BMP_temperature;BMP_pressure;BME280_temperature;BME280_humidity;BME280_pressure;Samples;Min_cycle;Max_cycle;Signal;HPM_P1;HPM_P2
2022/08/29 00:00:17;;;;;;;;;;;16.20;99.90;;;;;;5002897;28;19937;-80
2022/08/29 00:02:43;;;;;;;;;;;16.10;99.90;;;;;;4990525;28;19926;-78
2022/08/29 00:05:09;;;;;;;;;;;16.10;99.90;;;;;;4994273;28;20016;-78
2022/08/29 00:07:35;;;;;;;;;;;16.20;99.90;;;;;;4990184;28;19933;-79
2022/08/29 00:10:02;;;;;;;;;;;16.10;99.90;;;;;;4989161;28;19934;-78
2022/08/29 00:12:29;;;;;;;;;;;16.10;99.90;;;;;;4988451;28;20410;-78
2022/08/29 00:14:55;;;;;;;;;;;16.10;99.90;;;;;;4988633;28;20040;-78
2022/08/29 00:17:21;;;;;;;;;;;16.10;99.90;;;;;;4989169;28;19936;-78
2022/08/29 00:19:47;;;;;;;;;;;16.20;99.90;;;;;;4989367;28;20367;-77
2022/08/29 00:22:12;;;;;;;;;;;16.20;99.90;;;;;;4955946;28;19926;-78
2022/08/29 00:24:38;;;;;;;;;;;16.20;99.90;;;;;;4972451;28;19933;-79
2022/08/29 00:27:05;;;;;;;;;;;16.20;99.90;;;;;;4988054;28;19972;-78
2022/08/29 00:29:31;;;;;;;;;;;16.20;99.90;;;;;;4972114;28;20460;-80
2022/08/29 00:31:56;;;;;;;;;;;16.20;99.90;;;;;;4987817;28;20028;-78
2022/08/29 00:34:22;;;;;;;;;;;16.20;99.90;;;;;;4969467;28;19980;-78
2022/08/29 00:36:52;;;;;;;;;;;16.20;99.90;;;;;;4954665;28;19932;-80
2022/08/29 00:39:17;;;;;;;;;;;16.20;99.90;;;;;;4984522;28;19930;-78
2022/08/29 00:41:43;;;;;;;;;;;16.30;99.90;;;;;;4987774;28;19941;-81
2022/08/29 00:44:09;;;;;;;;;;;16.30;99.90;;;;;;4986605;28;19975;-78
2022/08/29 00:46:41;;;;;;;;;;;16.30;99.90;;;;;;4970346;28;19951;-77
2022/08/29 00:49:27;;;;;;;;;;;16.30;99.90;;;;;;4990445;28;19929;-78
2022/08/29 00:51:53;;;;;;;;;;;16.30;99.90;;;;;;4987166;28;19926;-77
2022/08/29 00:54:20;;;;;;;;;;;16.30;99.90;;;;;;4988992;28;19980;-78
2022/08/29 00:56:46;;;;;;;;;;;16.30;99.90;;;;;;4987767;28;19945;-79
2022/08/29 00:59:14;;;;;;;;;;;16.30;99.90;;;;;;4988186;28;19929;-78
2022/08/29 01:01:40;;;;;;;;;;;16.30;99.90;;;;;;4988079;28;19945;-77
2022/08/29 01:04:06;;;;;;;;;;;16.40;99.90;;;;;;4989924;28;19925;-80
2022/08/29 01:06:33;;;;;;;;;;;16.40;99.90;;;;;;4988030;28;19925;-79
2022/08/29 01:08:59;;;;;;;;;;;16.30;99.90;;;;;;4985779;28;19981;-79
2022/08/29 01:14:14;;;;;;;;;;;16.40;99.90;;;;;;4945275;28;19929;-79
2022/08/29 01:16:39;;;;;;;;;;;16.40;99.90;;;;;;4962426;28;19926;-78
2022/08/29 01:19:09;;;;;;;;;;;16.40;99.90;;;;;;4984397;28;19952;-83
2022/08/29 01:21:39;;;;;;;;;;;16.40;99.90;;;;;;4985909;28;19930;-77
2022/08/29 01:24:14;;;;;;;;;;;16.40;99.90;;;;;;4986052;28;20392;-84
2022/08/29 01:26:45;;;;;;;;;;;16.30;99.90;;;;;;4988594;28;20590;-78
2022/08/29 01:29:10;;;;;;;;;;;16.70;99.90;;;;;;4982670;28;20400;-78
2022/08/29 01:31:45;;;;;;;;;;;16.40;99.90;;;;;;4990033;28;19926;-80
2022/08/29 01:34:11;;;;;;;;;;;16.40;99.90;;;;;;4993027;28;20345;-78
2022/08/29 01:36:42;;;;;;;;;;;16.50;99.90;;;;;;4990103;28;20502;-77
2022/08/29 01:39:08;;;;;;;;;;;16.50;99.90;;;;;;4984983;28;20428;-76
2022/08/29 01:41:34;;;;;;;;;;;16.50;99.90;;;;;;4988967;28;19929;-77
2022/08/29 01:44:00;;;;;;;;;;;16.50;99.90;;;;;;4987465;28;20024;-77
2022/08/29 01:46:28;;;;;;;;;;;16.50;99.90;;;;;;4973885;28;19925;-79
2022/08/29 01:48:54;;;;;;;;;;;16.50;99.90;;;;;;4990275;28;19933;-82
2022/08/29 01:51:20;;;;;;;;;;;16.50;99.90;;;;;;4973901;28;19930;-80
2022/08/29 01:53:46;;;;;;;;;;;16.50;99.90;;;;;;4957650;28;20025;-78
2022/08/29 01:56:13;;;;;;;;;;;16.50;99.90;;;;;;4989022;28;19980;-84
2022/08/29 01:58:39;;;;;;;;;;;16.50;99.90;;;;;;4990595;28;19983;-81
2022/08/29 02:01:06;;;;;;;;;;;16.50;99.90;;;;;;4951603;28;20031;-82
2022/08/29 02:03:31;;;;;;;;;;;16.50;99.90;;;;;;4974376;28;20062;-78
2022/08/29 02:08:50;;;;;;;;;;;16.40;99.90;;;;;;4997482;23;19930;-77
2022/08/29 02:11:18;;;;;;;;;;;16.40;99.90;;;;;;4952323;28;19926;-76
2022/08/29 02:14:03;;;;;;;;;;;16.40;99.90;;;;;;4993402;28;19921;-79
2022/08/29 02:16:30;;;;;;;;;;;16.40;99.90;;;;;;4993647;28;19975;-77
2022/08/29 02:22:17;;;;;;;;;;;16.50;99.90;;;;;;4989332;28;19976;-78
2022/08/29 02:24:48;;;;;;;;;;;16.40;99.90;;;;;;4973500;28;19952;-78
2022/08/29 02:27:15;;;;;;;;;;;16.50;99.90;;;;;;4968340;28;20451;-83
2022/08/29 02:29:41;;;;;;;;;;;16.40;99.90;;;;;;4987540;28;19956;-84
2022/08/29 02:32:12;;;;;;;;;;;16.40;99.90;;;;;;4981714;28;20380;-82
2022/08/29 02:34:57;;;;;;;;;;;16.50;99.90;;;;;;4964817;28;19977;-82
2022/08/29 02:37:24;;;;;;;;;;;16.40;99.90;;;;;;4989869;28;19987;-86
2022/08/29 02:39:50;;;;;;;;;;;16.50;99.90;;;;;;4994106;28;19941;-90
2022/08/29 02:42:18;;;;;;;;;;;16.40;99.90;;;;;;4960971;28;19929;-86
2022/08/29 02:44:45;;;;;;;;;;;16.50;99.90;;;;;;4970399;28;19973;-85
2022/08/29 02:47:30;;;;;;;;;;;16.40;99.90;;;;;;4979391;28;19928;-87
2022/08/29 02:49:57;;;;;;;;;;;16.50;99.90;;;;;;4975274;28;20012;-77
2022/08/29 02:52:24;;;;;;;;;;;16.50;99.90;;;;;;4958890;28;19925;-84
2022/08/29 02:54:50;;;;;;;;;;;16.50;99.90;;;;;;4962757;28;20471;-82
2022/08/29 02:57:37;;;;;;;;;;;16.40;99.90;;;;;;4967469;28;19945;-91
2022/08/29 03:00:09;;;;;;;;;;;16.50;99.90;;;;;;4987081;28;19930;-83
2022/08/29 03:02:38;;;;;;;;;;;16.50;99.90;;;;;;4967939;28;19932;-88
2022/08/29 03:05:06;;;;;;;;;;;16.50;99.90;;;;;;4966473;28;19929;-86
2022/08/29 03:07:32;;;;;;;;;;;16.40;99.90;;;;;;4982400;28;19960;-91
2022/08/29 03:09:57;;;;;;;;;;;16.50;99.90;;;;;;4963167;28;20361;-83
2022/08/29 03:12:43;;;;;;;;;;;16.50;99.90;;;;;;4955983;28;20000;-89
2022/08/29 03:15:09;;;;;;;;;;;16.50;99.90;;;;;;4997465;28;19936;-80
2022/08/29 03:17:54;;;;;;;;;;;16.50;99.90;;;;;;4983043;28;19977;-90
2022/08/29 03:20:22;;;;;;;;;;;16.50;99.90;;;;;;4965310;28;19940;-87
2022/08/29 03:28:57;;;;;;;;;;;16.40;99.90;;;;;;4986546;28;19932;-89
2022/08/29 03:31:23;;;;;;;;;;;16.50;99.90;;;;;;4966629;28;19926;-84
2022/08/29 03:33:51;;;;;;;;;;;16.40;99.90;;;;;;4984119;28;19991;-87
2022/08/29 03:36:17;;;;;;;;;;;16.40;99.90;;;;;;4966499;28;19925;-84
2022/08/29 03:38:45;;;;;;;;;;;16.40;99.90;;;;;;4972435;28;20609;-83
2022/08/29 03:41:19;;;;;;;;;;;16.40;99.90;;;;;;4980686;28;19940;-84
2022/08/29 03:44:03;;;;;;;;;;;16.40;99.90;;;;;;4980089;28;20423;-88
2022/08/29 03:49:34;;;;;;;;;;;16.30;99.90;;;;;;4986668;28;20004;-82
2022/08/29 03:52:00;;;;;;;;;;;16.30;99.90;;;;;;4968156;28;19925;-88
2022/08/29 03:54:27;;;;;;;;;;;16.30;99.90;;;;;;4979683;28;19926;-78
2022/08/29 03:56:53;;;;;;;;;;;16.30;99.90;;;;;;4979803;28;19936;-78
2022/08/29 03:59:19;;;;;;;;;;;16.30;99.90;;;;;;4949375;28;19965;-78
2022/08/29 04:01:47;;;;;;;;;;;16.30;99.90;;;;;;4980595;28;19929;-79
2022/08/29 04:05:05;;;;;;;;;;;16.20;99.90;;;;;;4973173;28;20455;-80
2022/08/29 04:07:00;;;;;;;;;;;16.30;99.90;;;;;;4986483;28;19930;-79
2022/08/29 04:09:26;;;;;;;;;;;16.30;99.90;;;;;;4976328;28;19942;-81
2022/08/29 04:11:52;;;;;;;;;;;16.20;99.90;;;;;;4977228;28;19933;-78
2022/08/29 04:14:19;;;;;;;;;;;16.20;99.90;;;;;;4977023;28;19934;-80
2022/08/29 04:16:48;;;;;;;;;;;16.20;99.90;;;;;;4965221;28;20573;-78
2022/08/29 04:19:16;;;;;;;;;;;16.20;99.90;;;;;;4995729;28;20319;-78
2022/08/29 04:21:41;;;;;;;;;;;16.20;99.90;;;;;;4971763;28;20344;-78
2022/08/29 04:24:07;;;;;;;;;;;16.20;99.90;;;;;;4961986;28;19961;-84
2022/08/29 04:26:33;;;;;;;;;;;16.20;99.90;;;;;;4959958;28;19976;-81
2022/08/29 04:29:00;;;;;;;;;;;16.30;99.90;;;;;;5004209;28;19991;-78
2022/08/29 04:31:25;;;;;;;;;;;16.20;99.90;;;;;;4972179;28;19929;-78
2022/08/29 04:33:51;;;;;;;;;;;16.20;99.90;;;;;;4997588;28;20192;-79
2022/08/29 04:36:17;;;;;;;;;;;16.20;99.90;;;;;;4981623;28;20384;-78
2022/08/29 04:38:43;;;;;;;;;;;16.20;99.90;;;;;;4981329;28;19936;-80
2022/08/29 04:41:13;;;;;;;;;;;16.20;99.90;;;;;;4954969;28;19937;-80
2022/08/29 04:43:44;;;;;;;;;;;16.20;99.90;;;;;;4984092;28;20023;-80
2022/08/29 04:46:10;;;;;;;;;;;16.20;99.90;;;;;;4979159;28;20436;-78
2022/08/29 04:48:36;;;;;;;;;;;16.20;99.90;;;;;;4977862;28;19925;-79
2022/08/29 04:51:01;;;;;;;;;;;16.20;99.90;;;;;;4998355;28;19922;-78
2022/08/29 04:53:28;;;;;;;;;;;16.20;99.90;;;;;;4979701;28;19940;-80
2022/08/29 04:55:55;;;;;;;;;;;16.20;99.90;;;;;;4987197;28;19926;-81
2022/08/29 04:58:23;;;;;;;;;;;16.30;99.90;;;;;;4958681;28;19932;-80
2022/08/29 05:00:50;;;;;;;;;;;16.30;99.90;;;;;;4980929;28;20024;-78
2022/08/29 05:03:16;;;;;;;;;;;16.30;99.90;;;;;;4980000;28;19936;-78
2022/08/29 05:05:42;;;;;;;;;;;16.40;99.90;;;;;;4981188;28;19929;-79
2022/08/29 05:08:08;;;;;;;;;;;16.40;99.90;;;;;;4972231;28;19926;-80
2022/08/29 05:10:33;;;;;;;;;;;16.40;99.90;;;;;;4982383;28;19936;-81
2022/08/29 05:13:02;;;;;;;;;;;16.40;99.90;;;;;;4982105;28;19925;-80
2022/08/29 05:15:27;;;;;;;;;;;16.40;99.90;;;;;;4966988;28;19926;-80
2022/08/29 05:17:53;;;;;;;;;;;16.40;99.90;;;;;;4964558;28;19926;-80
2022/08/29 05:20:27;;;;;;;;;;;16.50;99.90;;;;;;4956248;28;20456;-79
2022/08/29 05:22:52;;;;;;;;;;;16.50;99.90;;;;;;4970121;28;19930;-80
2022/08/29 05:25:18;;;;;;;;;;;16.50;99.90;;;;;;4950060;28;19965;-79
2022/08/29 05:27:44;;;;;;;;;;;16.50;99.90;;;;;;4955290;28;19948;-82
2022/08/29 05:30:10;;;;;;;;;;;16.60;99.90;;;;;;4972037;28;20283;-82
2022/08/29 05:32:36;;;;;;;;;;;16.50;99.90;;;;;;4963481;28;19949;-81
2022/08/29 05:35:03;;;;;;;;;;;16.60;99.90;;;;;;4977451;28;19944;-79
2022/08/29 05:37:29;;;;;;;;;;;16.60;99.90;;;;;;4962211;28;20467;-79
2022/08/29 05:39:55;;;;;;;;;;;16.60;99.90;;;;;;4995805;28;19944;-80
2022/08/29 05:42:22;;;;;;;;;;;16.60;99.90;;;;;;4955598;28;20578;-80
2022/08/29 05:44:48;;;;;;;;;;;16.70;99.90;;;;;;4981804;28;19925;-81
2022/08/29 05:47:15;;;;;;;;;;;16.70;99.90;;;;;;4971664;28;19960;-80
2022/08/29 05:49:42;;;;;;;;;;;16.70;99.90;;;;;;4970450;28;19925;-82
2022/08/29 05:52:08;;;;;;;;;;;16.80;99.90;;;;;;4983938;28;19932;-82
2022/08/29 05:54:35;;;;;;;;;;;16.70;99.90;;;;;;4986895;28;19930;-81
2022/08/29 05:57:01;;;;;;;;;;;16.70;99.90;;;;;;4987298;28;19925;-81
2022/08/29 05:59:26;;;;;;;;;;;16.80;99.90;;;;;;4972182;28;19926;-80
2022/08/29 06:01:52;;;;;;;;;;;16.80;99.90;;;;;;4968088;28;20023;-84
2022/08/29 06:04:18;;;;;;;;;;;16.70;99.90;;;;;;4966073;28;19926;-80
2022/08/29 06:06:44;;;;;;;;;;;16.80;99.90;;;;;;4968345;28;19984;-84
2022/08/29 06:09:10;;;;;;;;;;;16.80;99.90;;;;;;4979850;28;20535;-83
2022/08/29 06:11:37;;;;;;;;;;;16.90;99.90;;;;;;4980034;28;19943;-79
2022/08/29 06:14:03;;;;;;;;;;;16.90;99.90;;;;;;4968994;28;19922;-84
2022/08/29 06:16:31;;;;;;;;;;;16.90;99.90;;;;;;4989625;28;19964;-82
2022/08/29 06:18:57;;;;;;;;;;;17.00;99.90;;;;;;4993231;28;19929;-82
2022/08/29 06:21:23;;;;;;;;;;;17.10;99.90;;;;;;4993242;28;19934;-82
2022/08/29 06:23:49;;;;;;;;;;;17.10;99.90;;;;;;5003353;28;19974;-82
2022/08/29 06:26:16;;;;;;;;;;;17.20;99.90;;;;;;4986607;28;20401;-83
2022/08/29 06:28:46;;;;;;;;;;;17.20;99.90;;;;;;4987491;28;20015;-84
2022/08/29 06:31:14;;;;;;;;;;;17.30;99.90;;;;;;4989143;28;19926;-84
2022/08/29 06:33:40;;;;;;;;;;;17.30;99.90;;;;;;4983804;28;19930;-82
2022/08/29 06:36:06;;;;;;;;;;;17.50;99.90;;;;;;4987106;28;20013;-84
2022/08/29 06:38:32;;;;;;;;;;;17.60;99.90;;;;;;4988835;28;19926;-86
2022/08/29 06:41:02;;;;;;;;;;;17.60;99.90;;;;;;4991164;28;19980;-86
2022/08/29 06:43:28;;;;;;;;;;;17.80;99.90;;;;;;4980662;28;19957;-83
2022/08/29 06:45:54;;;;;;;;;;;17.90;99.90;;;;;;4962304;28;20141;-86
2022/08/29 06:48:20;;;;;;;;;;;18.00;99.90;;;;;;5005844;28;19922;-83
2022/08/29 06:50:46;;;;;;;;;;;18.10;99.90;;;;;;4992688;28;19940;-83
2022/08/29 06:53:11;;;;;;;;;;;18.20;99.90;;;;;;4975826;28;19938;-85
2022/08/29 06:55:37;;;;;;;;;;;18.30;99.90;;;;;;4986882;28;19960;-84
2022/08/29 06:58:04;;;;;;;;;;;18.30;99.90;;;;;;4991536;28;19952;-82
2022/08/29 07:00:30;;;;;;;;;;;18.40;99.90;;;;;;4988227;28;19929;-80
2022/08/29 07:02:57;;;;;;;;;;;;;;;;;;4986184;28;19968;-83
2022/08/29 07:05:22;;;;;;;;;;;18.60;99.90;;;;;;4990067;28;19933;-82
2022/08/29 07:07:49;;;;;;;;;;;18.70;99.90;;;;;;5009090;28;19933;-83
2022/08/29 07:10:16;;;;;;;;;;;18.70;99.90;;;;;;5003599;28;19929;-84
2022/08/29 07:12:42;;;;;;;;;;;18.90;99.90;;;;;;5012446;28;20020;-82
2022/08/29 07:15:09;;;;;;;;;;;18.90;99.90;;;;;;4989641;28;20660;-81
2022/08/29 07:17:35;;;;;;;;;;;18.90;99.90;;;;;;5023697;28;19976;-80
2022/08/29 07:20:02;;;;;;;;;;;19.00;99.90;;;;;;4995566;28;20544;-80
2022/08/29 07:22:28;;;;;;;;;;;19.00;99.90;;;;;;5008023;28;19975;-82
2022/08/29 07:24:57;;;;;;;;;;;19.00;99.90;;;;;;5007733;28;20475;-82
2022/08/29 07:27:22;;;;;;;;;;;18.90;99.90;;;;;;5000982;28;19933;-79
2022/08/29 07:29:48;;;;;;;;;;;18.90;99.90;;;;;;4991423;28;19955;-80
2022/08/29 07:32:14;;;;;;;;;;;18.90;99.90;;;;;;5006510;28;20379;-81
2022/08/29 07:34:40;;;;;;;;;;;18.80;99.90;;;;;;5001143;28;19932;-80
2022/08/29 07:37:06;;;;;;;;;;;18.80;99.90;;;;;;4994037;28;19929;-80
2022/08/29 07:39:32;;;;;;;;;;;18.90;99.90;;;;;;5001295;28;19931;-82
2022/08/29 07:41:58;;;;;;;;;;;18.90;99.90;;;;;;5007199;28;19980;-80
2022/08/29 07:44:24;;;;;;;;;;;18.90;99.90;;;;;;5002614;28;19983;-81
2022/08/29 07:46:57;;;;;;;;;;;18.90;99.90;;;;;;4984379;28;19991;-80
2022/08/29 07:49:23;;;;;;;;;;;18.90;99.90;;;;;;5003593;28;19933;-81
2022/08/29 07:51:53;;;;;;;;;;;18.90;99.90;;;;;;5001662;28;20006;-80
2022/08/29 07:54:19;;;;;;;;;;;18.90;99.90;;;;;;5002379;28;19928;-78
2022/08/29 07:56:49;;;;;;;;;;;18.90;99.90;;;;;;5001597;28;20020;-82
2022/08/29 07:59:15;;;;;;;;;;;18.90;99.90;;;;;;4988723;28;19936;-79
2022/08/29 08:01:41;;;;;;;;;;;18.90;99.90;;;;;;5003357;28;19979;-79
2022/08/29 08:04:07;;;;;;;;;;;18.90;99.90;;;;;;5005392;28;19998;-79
2022/08/29 08:06:35;;;;;;;;;;;18.90;99.90;;;;;;4996059;28;19933;-81
2022/08/29 08:09:02;;;;;;;;;;;18.90;99.90;;;;;;5004445;28;20390;-81
2022/08/29 08:11:28;;;;;;;;;;;18.90;99.90;;;;;;4986131;28;20423;-81
2022/08/29 08:13:55;;;;;;;;;;;18.90;99.90;;;;;;4985243;28;19924;-82
2022/08/29 08:16:25;;;;;;;;;;;18.90;99.90;;;;;;5004500;28;20015;-80
2022/08/29 08:18:54;;;;;;;;;;;19.00;99.90;;;;;;4987428;28;21648;-82
2022/08/29 08:21:20;;;;;;;;;;;18.90;99.90;;;;;;4989939;28;19933;-79
2022/08/29 08:23:46;;;;;;;;;;;19.00;99.90;;;;;;5003092;28;20524;-79
2022/08/29 08:26:12;;;;;;;;;;;18.90;99.90;;;;;;4989195;28;19956;-83
2022/08/29 08:28:39;;;;;;;;;;;18.90;99.90;;;;;;4992686;28;19929;-79
2022/08/29 08:31:06;;;;;;;;;;;18.90;99.90;;;;;;4984224;28;19925;-79
2022/08/29 08:33:32;;;;;;;;;;;18.90;99.90;;;;;;5001357;28;19929;-82
2022/08/29 08:35:58;;;;;;;;;;;18.90;99.90;;;;;;5006440;28;20004;-79
2022/08/29 08:38:24;;;;;;;;;;;18.90;99.90;;;;;;4981745;28;20483;-80
2022/08/29 08:40:57;;;;;;;;;;;18.90;99.90;;;;;;4990799;28;20012;-83
2022/08/29 08:43:27;;;;;;;;;;;18.90;99.90;;;;;;4978851;28;19983;-81
2022/08/29 08:45:54;;;;;;;;;;;19.00;99.90;;;;;;4988662;28;19960;-85
2022/08/29 08:48:21;;;;;;;;;;;19.00;99.90;;;;;;5005764;28;20284;-82
2022/08/29 08:50:50;;;;;;;;;;;19.50;99.90;;;;;;5007241;28;21199;-85
2022/08/29 08:53:18;;;;;;;;;;;19.00;99.90;;;;;;4989807;28;20512;-82
2022/08/29 08:55:47;;;;;;;;;;;19.00;99.90;;;;;;4988081;28;19929;-82
2022/08/29 08:58:16;;;;;;;;;;;19.00;99.90;;;;;;4987081;28;20008;-86
2022/08/29 09:00:44;;;;;;;;;;;19.10;99.90;;;;;;5010855;28;20002;-83
2022/08/29 09:03:20;;;;;;;;;;;19.10;99.90;;;;;;4992259;28;19937;-87
2022/08/29 09:06:00;;;;;;;;;;;19.10;99.90;;;;;;4992872;28;20292;-78
2022/08/29 09:08:26;;;;;;;;;;;19.10;99.90;;;;;;4975643;28;19926;-80
2022/08/29 09:10:57;;;;;;;;;;;19.10;99.90;;;;;;4982010;28;20011;-85
2022/08/29 09:13:36;;;;;;;;;;;19.20;99.90;;;;;;4974289;28;19995;-77
2022/08/29 09:16:04;;;;;;;;;;;19.20;99.90;;;;;;4986810;28;20452;-78
2022/08/29 09:18:35;;;;;;;;;;;19.20;99.90;;;;;;4975109;28;19964;-78
2022/08/29 09:21:03;;;;;;;;;;;19.30;99.90;;;;;;4957690;28;19987;-80
2022/08/29 09:23:48;;;;;;;;;;;19.30;99.90;;;;;;4980316;28;20017;-79
2022/08/29 09:26:19;;;;;;;;;;;19.30;99.90;;;;;;4969033;28;20032;-80
2022/08/29 09:28:45;;;;;;;;;;;19.40;99.90;;;;;;4979315;28;19965;-81
2022/08/29 09:31:21;;;;;;;;;;;19.50;99.90;;;;;;4964393;28;19926;-81
2022/08/29 09:33:52;;;;;;;;;;;19.70;99.90;;;;;;4969516;28;19945;-80
2022/08/29 09:36:35;;;;;;;;;;;19.80;99.90;;;;;;4983799;28;19961;-82
2022/08/29 09:39:16;;;;;;;;;;;19.90;99.90;;;;;;4994556;28;19988;-81
2022/08/29 09:41:42;;;;;;;;;;;20.10;99.90;;;;;;4982846;28;19978;-80
2022/08/29 09:44:18;;;;;;;;;;;20.20;99.90;;;;;;4966301;28;20381;-79
2022/08/29 09:46:45;;;;;;;;;;;20.50;99.90;;;;;;4969756;28;19937;-79
2022/08/29 09:49:13;;;;;;;;;;;20.80;99.90;;;;;;4971336;28;19937;-82
2022/08/29 09:51:41;;;;;;;;;;;21.00;99.90;;;;;;4966689;28;19933;-80
2022/08/29 09:54:10;;;;;;;;;;;21.00;99.90;;;;;;4985502;28;20381;-80
2022/08/29 09:56:37;;;;;;;;;;;20.90;99.90;;;;;;4971793;28;20020;-80
2022/08/29 09:59:10;;;;;;;;;;;20.80;99.90;;;;;;4986664;28;20415;-80
2022/08/29 10:01:37;;;;;;;;;;;20.80;99.90;;;;;;4971903;28;19976;-81
2022/08/29 10:04:05;;;;;;;;;;;20.70;99.90;;;;;;4989889;28;19941;-79
2022/08/29 10:06:33;;;;;;;;;;;20.60;99.90;;;;;;4971578;28;19933;-79
2022/08/29 10:08:58;;;;;;;;;;;20.60;99.90;;;;;;4988378;28;19972;-81
2022/08/29 10:11:28;;;;;;;;;;;20.60;99.90;;;;;;4972265;28;20228;-82
2022/08/29 10:14:09;;;;;;;;;;;20.60;99.90;;;;;;4968968;28;19930;-80
2022/08/29 10:18:19;;;;;;;;;;;20.60;99.90;;;;;;4969519;28;19992;-81
2022/08/29 10:19:43;;;;;;;;;;;20.60;99.90;;;;;;4979839;28;19933;-80
2022/08/29 10:22:15;;;;;;;;;;;20.70;99.90;;;;;;4960285;28;20007;-83
2022/08/29 10:24:44;;;;;;;;;;;20.90;99.90;;;;;;4984062;28;19926;-80
2022/08/29 10:27:28;;;;;;;;;;;20.90;99.90;;;;;;4986705;28;19926;-80
2022/08/29 10:30:02;;;;;;;;;;;21.00;99.90;;;;;;4983431;28;19937;-81
2022/08/29 10:32:31;;;;;;;;;;;21.10;99.90;;;;;;4970430;28;20020;-80
2022/08/29 10:34:57;;;;;;;;;;;21.40;99.90;;;;;;5001432;28;20491;-81
2022/08/29 10:37:32;;;;;;;;;;;21.50;99.90;;;;;;4984702;28;20466;-81
2022/08/29 10:40:05;;;;;;;;;;;21.50;99.90;;;;;;4979453;28;20467;-83
2022/08/29 10:42:33;;;;;;;;;;;21.50;99.90;;;;;;4983774;28;20017;-81
2022/08/29 10:45:12;;;;;;;;;;;21.50;99.90;;;;;;4965130;28;19934;-82
2022/08/29 10:47:40;;;;;;;;;;;21.40;99.90;;;;;;4971677;28;19923;-80
2022/08/29 10:50:14;;;;;;;;;;;21.30;99.90;;;;;;4972144;28;19944;-81
2022/08/29 10:52:47;;;;;;;;;;;21.30;99.90;;;;;;4984310;28;19926;-80
2022/08/29 10:55:13;;;;;;;;;;;21.30;99.90;;;;;;4974004;28;19941;-81
2022/08/29 10:57:45;;;;;;;;;;;21.40;99.90;;;;;;4984036;28;20024;-80
2022/08/29 11:00:18;;;;;;;;;;;21.30;99.90;;;;;;4988681;28;19932;-79
2022/08/29 11:02:44;;;;;;;;;;;21.30;99.90;;;;;;4985716;28;19952;-79
2022/08/29 11:05:14;;;;;;;;;;;21.20;99.90;;;;;;4986230;28;20031;-79
2022/08/29 11:07:45;;;;;;;;;;;21.20;99.90;;;;;;4988161;28;19929;-81
2022/08/29 11:10:18;;;;;;;;;;;21.20;99.90;;;;;;4971373;28;20508;-82
2022/08/29 11:13:01;;;;;;;;;;;21.20;99.90;;;;;;4970880;28;20024;-81
2022/08/29 11:15:32;;;;;;;;;;;21.30;99.90;;;;;;4983449;28;20384;-82
2022/08/29 11:18:03;;;;;;;;;;;21.30;99.90;;;;;;4971991;28;19937;-82
2022/08/29 11:20:31;;;;;;;;;;;21.30;99.90;;;;;;4972198;28;20042;-81
2022/08/29 11:23:29;;;;;;;;;;;21.40;99.90;;;;;;4976634;28;20317;-82
2022/08/29 11:25:56;;;;;;;;;;;21.60;99.90;;;;;;4965435;28;19929;-77
2022/08/29 11:28:46;;;;;;;;;;;21.70;99.90;;;;;;4983604;28;19930;-79
2022/08/29 11:31:39;;;;;;;;;;;21.70;99.90;;;;;;4985161;28;19925;-80
2022/08/29 11:34:11;;;;;;;;;;;21.80;99.90;;;;;;4970823;28;19936;-83
2022/08/29 11:36:45;;;;;;;;;;;21.80;99.90;;;;;;4983542;28;20004;-80
2022/08/29 11:39:30;;;;;;;;;;;21.80;99.90;;;;;;4988790;28;20475;-82
2022/08/29 11:41:57;;;;;;;;;;;21.80;99.90;;;;;;4972346;28;20031;-79
2022/08/29 11:44:31;;;;;;;;;;;21.80;99.90;;;;;;4985342;28;19929;-81
2022/08/29 11:46:57;;;;;;;;;;;21.80;99.90;;;;;;4972200;28;19928;-84
2022/08/29 11:49:27;;;;;;;;;;;21.90;99.90;;;;;;4969893;28;19975;-83
2022/08/29 11:52:09;;;;;;;;;;;21.90;99.90;;;;;;4970085;28;20288;-81
2022/08/29 11:54:35;;;;;;;;;;;21.90;99.90;;;;;;4982452;28;19926;-85
2022/08/29 11:57:02;;;;;;;;;;;21.90;99.90;;;;;;4981968;28;19961;-82
2022/08/29 11:59:49;;;;;;;;;;;21.90;99.90;;;;;;4968167;28;19926;-78
2022/08/29 12:02:31;;;;;;;;;;;21.90;99.90;;;;;;4985570;28;19984;-81
2022/08/29 12:04:58;;;;;;;;;;;21.80;99.90;;;;;;4963948;28;19930;-83
2022/08/29 12:07:35;;;;;;;;;;;21.80;99.90;;;;;;4990944;28;19926;-86
2022/08/29 12:10:04;;;;;;;;;;;21.80;99.90;;;;;;4986051;28;20304;-85
2022/08/29 12:12:37;;;;;;;;;;;21.80;99.90;;;;;;4986909;28;20466;-82
2022/08/29 12:15:28;;;;;;;;;;;21.70;99.90;;;;;;5003085;28;19971;-83
2022/08/29 12:17:54;;;;;;;;;;;21.70;99.90;;;;;;4995948;28;19933;-86
2022/08/29 12:20:28;;;;;;;;;;;21.70;99.90;;;;;;5000850;28;20012;-84
2022/08/29 12:22:58;;;;;;;;;;;21.70;99.90;;;;;;4990899;28;20194;-83
2022/08/29 12:25:29;;;;;;;;;;;21.70;99.90;;;;;;4986984;28;19925;-84
2022/08/29 12:28:00;;;;;;;;;;;21.70;99.90;;;;;;4991925;28;20050;-85
2022/08/29 12:30:28;;;;;;;;;;;21.70;99.90;;;;;;5003334;28;20038;-84
2022/08/29 12:33:03;;;;;;;;;;;21.70;99.90;;;;;;4991256;28;20308;-81
2022/08/29 12:35:48;;;;;;;;;;;21.70;99.90;;;;;;5003327;28;20035;-85
2022/08/29 12:38:30;;;;;;;;;;;21.60;99.90;;;;;;5000459;28;19983;-83
2022/08/29 12:41:21;;;;;;;;;;;21.50;99.90;;;;;;5001876;28;19932;-83
2022/08/29 12:43:50;;;;;;;;;;;21.40;99.90;;;;;;5000677;28;19925;-84
2022/08/29 12:46:28;;;;;;;;;;;21.40;99.90;;;;;;4985941;28;19932;-84
2022/08/29 12:49:14;;;;;;;;;;;21.30;99.90;;;;;;5003753;28;20334;-84
2022/08/29 12:51:42;;;;;;;;;;;21.30;99.90;;;;;;4977756;28;19979;-86
2022/08/29 12:54:10;;;;;;;;;;;21.20;99.90;;;;;;4988619;28;19922;-83
2022/08/29 12:56:39;;;;;;;;;;;21.10;99.90;;;;;;5002843;28;19933;-84
2022/08/29 12:59:05;;;;;;;;;;;21.10;99.90;;;;;;4987701;28;19940;-83
2022/08/29 13:01:33;;;;;;;;;;;21.10;99.90;;;;;;5003839;28;20008;-84
2022/08/29 13:04:05;;;;;;;;;;;21.10;99.90;;;;;;4989092;28;20449;-83
2022/08/29 13:06:32;;;;;;;;;;;21.10;99.90;;;;;;4987708;28;20382;-83
2022/08/29 13:08:58;;;;;;;;;;;21.00;99.90;;;;;;5004921;28;19948;-83
2022/08/29 13:11:26;;;;;;;;;;;21.10;99.90;;;;;;4988343;28;19929;-83
2022/08/29 13:14:08;;;;;;;;;;;21.00;99.90;;;;;;4991499;28;19932;-79
2022/08/29 13:16:34;;;;;;;;;;;21.00;99.90;;;;;;5004752;28;19995;-82
2022/08/29 13:19:00;;;;;;;;;;;21.00;99.90;;;;;;5002915;28;20373;-82
2022/08/29 13:21:28;;;;;;;;;;;21.00;99.90;;;;;;4996248;28;19929;-84
2022/08/29 13:23:57;;;;;;;;;;;21.10;99.90;;;;;;5009505;28;19983;-85
2022/08/29 13:26:24;;;;;;;;;;;21.10;99.90;;;;;;5008604;28;20196;-84
2022/08/29 13:28:54;;;;;;;;;;;21.10;99.90;;;;;;5007771;28;20041;-84
2022/08/29 13:31:22;;;;;;;;;;;21.20;99.90;;;;;;5009222;28;19929;-82
2022/08/29 13:33:48;;;;;;;;;;;21.50;99.90;;;;;;5007211;28;19926;-82
2022/08/29 13:36:26;;;;;;;;;;;21.20;99.90;;;;;;5011008;28;19940;-80
2022/08/29 13:39:10;;;;;;;;;;;21.20;99.90;;;;;;4991794;28;19971;-81
2022/08/29 13:41:36;;;;;;;;;;;21.10;99.90;;;;;;5006796;28;19933;-84
2022/08/29 13:44:02;;;;;;;;;;;21.10;99.90;;;;;;4983759;28;20372;-86
2022/08/29 13:46:29;;;;;;;;;;;21.20;99.90;;;;;;4991643;28;19972;-79
2022/08/29 13:48:59;;;;;;;;;;;21.20;99.90;;;;;;4990264;28;20627;-81
2022/08/29 13:51:27;;;;;;;;;;;21.30;99.90;;;;;;4990794;28;19937;-82
2022/08/29 13:53:54;;;;;;;;;;;21.30;99.90;;;;;;5014574;28;19985;-80
2022/08/29 13:56:24;;;;;;;;;;;21.30;99.90;;;;;;5005707;28;19926;-87
2022/08/29 13:58:50;;;;;;;;;;;21.30;99.90;;;;;;5006844;28;19929;-82
2022/08/29 14:01:21;;;;;;;;;;;21.20;99.90;;;;;;5007087;28;19929;-80
2022/08/29 14:03:51;;;;;;;;;;;21.20;99.90;;;;;;4995628;28;19929;-82
2022/08/29 14:06:18;;;;;;;;;;;21.20;99.90;;;;;;5010167;28;20554;-87
2022/08/29 14:08:44;;;;;;;;;;;21.10;99.90;;;;;;4996536;28;19929;-81
2022/08/29 14:11:10;;;;;;;;;;;21.10;99.90;;;;;;4975839;28;20629;-84
2022/08/29 14:13:36;;;;;;;;;;;21.10;99.90;;;;;;4972867;28;19922;-83
2022/08/29 14:16:02;;;;;;;;;;;21.10;99.90;;;;;;4972388;28;19925;-82
2022/08/29 14:18:29;;;;;;;;;;;21.10;99.90;;;;;;4964198;28;19933;-84
2022/08/29 14:20:55;;;;;;;;;;;21.20;99.90;;;;;;4962551;28;19936;-86
2022/08/29 14:23:20;;;;;;;;;;;21.20;99.90;;;;;;4972829;28;19926;-80
2022/08/29 14:25:46;;;;;;;;;;;21.20;99.90;;;;;;4959256;28;19934;-81
2022/08/29 14:28:12;;;;;;;;;;;21.20;99.90;;;;;;4976550;28;19925;-85
2022/08/29 14:30:38;;;;;;;;;;;21.20;99.90;;;;;;4965797;28;20008;-81
2022/08/29 14:33:04;;;;;;;;;;;21.20;99.90;;;;;;4962609;28;19937;-81
2022/08/29 14:35:30;;;;;;;;;;;21.20;99.90;;;;;;4974440;28;19930;-81
2022/08/29 14:37:56;;;;;;;;;;;21.10;99.90;;;;;;4987799;28;20308;-79
2022/08/29 14:40:22;;;;;;;;;;;21.10;99.90;;;;;;4970679;28;19929;-79
2022/08/29 14:42:48;;;;;;;;;;;21.10;99.90;;;;;;4970392;28;20270;-83
2022/08/29 14:45:14;;;;;;;;;;;21.10;99.90;;;;;;4984988;28;20016;-81
2022/08/29 14:47:42;;;;;;;;;;;21.10;99.90;;;;;;4968943;28;19929;-81